Flight Track Log - Related Links

Times and Time Zones

All times are in EDT time to prevent confusion due to time zone crossing. See the ASQ4592 flight status page for this flight to view local times or setup timezone preferences in your user account.

Time Position Orientation Groundspeed Altitude Reporting Facility
EDT Latitude Longitude Course Direction KTS MPH feet Rate Location/Type
Sat 03:02:15 PM 42.7705 -85.6295 63° Northeast  Level FlightAware Approximate
Sat 03:03:15 PM 42.8350 -85.4594 217° Southwest 242 278 5,500  Level Chicago Center
Sat 03:04:15 PM 42.7706 -85.5256 214° Southwest 269 310 7,800 2,350 Climbing Chicago Center
Sat 03:05:15 PM 42.7017 -85.5892 216° Southwest 282 325 10,200 1,850 Climbing Chicago Center
Sat 03:06:15 PM 42.6250 -85.6642 212° Southwest 316 364 11,500 1,850 Climbing Chicago Center
Sat 03:07:15 PM 42.5458 -85.7308 210° Southwest 339 390 13,900 1,800 Climbing Chicago Center
Sat 03:08:15 PM 42.4725 -85.7886 208° Southwest 345 397 15,100 1,400 Climbing Chicago Center
Sat 03:09:15 PM 42.3847 -85.8528 211° Southwest 352 405 16,700 1,400 Climbing Chicago Center
Sat 03:10:15 PM 42.3014 -85.9192 209° Southwest 357 411 17,900 1,500 Climbing Chicago Center
Sat 03:11:15 PM 42.2178 -85.9825 212° Southwest 352 405 19,700 1,550 Climbing Chicago Center
Sat 03:12:15 PM 42.1364 -86.0511 227° Southwest 347 399 21,000 650 Climbing Chicago Center
Sat 03:13:15 PM 42.0642 -86.1556 226° Southwest 354 407 21,000 250 Level Chicago Center
Sat 03:14:15 PM 41.9839 -86.2686 229° Southwest 375 432 21,500 900 Climbing Chicago Center
Sat 03:15:15 PM 41.9217 -86.3636 228° Southwest 380 437 22,800 1,400 Climbing Chicago Center
Sat 03:16:15 PM 41.8514 -86.4672 227° Southwest 380 437 24,300 1,650 Climbing Chicago Center
Sat 03:17:15 PM 41.7850 -86.5622 228° Southwest 375 432 26,100 1,650 Climbing Chicago Center
Sat 03:18:15 PM 41.7186 -86.6597 227° Southwest 363 418 27,600 1,550 Climbing Chicago Center
Sat 03:19:15 PM 41.6519 -86.7542 227° Southwest 358 412 29,200 1,500 Climbing Chicago Center
Sat 03:20:15 PM 41.5853 -86.8486 227° Southwest 353 406 30,600 1,350 Climbing Chicago Center
Sat 03:21:15 PM 41.5206 -86.9397 226° Southwest 348 400 31,900 1,250 Climbing Chicago Center
Sat 03:22:15 PM 41.4556 -87.0308 226° Southwest 348 400 33,100 1,050 Climbing Chicago Center
Sat 03:23:15 PM 41.3886 -87.1247 226° Southwest 348 400 34,000 1,000 Climbing Chicago Center
Sat 03:24:15 PM 41.3236 -87.2153 226° Southwest 353 406 35,100 1,000 Climbing Chicago Center
Sat 03:25:15 PM 41.2586 -87.3058 226° Southwest 353 406 36,000 450 Climbing Chicago Center
Sat 03:26:15 PM 41.1894 -87.4019 227° Southwest 353 406 36,000  Level Chicago Center
Sat 03:27:15 PM 41.1203 -87.5003 225° Southwest 358 412 36,000  Level Chicago Center
Sat 03:28:15 PM 41.0425 -87.6017 228° Southwest 368 423 36,000  Level Chicago Center
Sat 03:29:15 PM 40.9692 -87.7083 225° Southwest 383 441 36,000  Level Chicago Center
Sat 03:30:15 PM 40.8933 -87.8089 227° Southwest 383 441 36,000  Level Chicago Center
Sat 03:31:15 PM 40.8197 -87.9122 226° Southwest 383 441 36,000  Level Chicago Center
Sat 03:32:15 PM 40.7458 -88.0125 226° Southwest 383 441 36,000  Level Chicago Center
Sat 03:33:15 PM 40.6739 -88.1097 226° Southwest 383 441 36,000  Level Chicago Center
Sat 03:34:15 PM 40.6019 -88.2069 226° Southwest 383 441 36,000  Level Chicago Center
Sat 03:35:15 PM 40.5300 -88.3036 226° Southwest 383 441 36,000  Level Chicago Center
Sat 03:36:15 PM 40.4619 -88.3975 226° Southwest 377 434 36,000  Level Chicago Center
Sat 03:37:54 PM 40.3381 -88.5642 225° Southwest 358 412 36,000  Level Kansas City Center
Sat 03:38:54 PM 40.2678 -88.6572 226° Southwest 358 412 36,000  Level Kansas City Center
Sat 03:39:54 PM 40.1992 -88.7497 224° Southwest 358 412 36,000  Level Kansas City Center
Sat 03:40:54 PM 40.1283 -88.8397 227° Southwest 364 419 36,000  Level Kansas City Center
Sat 03:41:54 PM 40.0581 -88.9375 224° Southwest 364 419 36,000  Level Kansas City Center
Sat 03:42:54 PM 39.9833 -89.0328 219° Southwest 370 426 36,000  Level Kansas City Center
Sat 03:43:54 PM 39.9036 -89.1172 209° Southwest 375 432 36,000  Level Kansas City Center
Sat 03:44:54 PM 39.8108 -89.1839 208° Southwest 375 432 36,000  Level Kansas City Center
Sat 03:45:54 PM 39.7178 -89.2475 208° Southwest 380 437 36,000 -50 Level Kansas City Center
Sat 03:46:54 PM 39.6267 -89.3108 209° Southwest 380 437 35,900  Descending Kansas City Center
Sat 03:47:54 PM 39.5358 -89.3764 207° Southwest 380 437 36,000 50 Climbing Kansas City Center
Sat 03:48:54 PM 39.4364 -89.4428 209° Southwest 385 443 36,000  Level Kansas City Center
Sat 03:49:54 PM 39.3453 -89.5083 208° Southwest 385 443 36,000  Level Kansas City Center
Sat 03:50:54 PM 39.2561 -89.5706 207° Southwest 396 456 36,000  Level Kansas City Center
Sat 03:51:54 PM 39.1486 -89.6422 208° Southwest 402 463 36,000  Level Kansas City Center
Sat 03:52:54 PM 39.0594 -89.7044 208° Southwest 402 463 36,000  Level Kansas City Center
Sat 03:53:54 PM 38.9519 -89.7783 208° Southwest 402 463 36,000  Level Kansas City Center
Sat 03:54:54 PM 38.8625 -89.8400 209° Southwest 402 463 36,000  Level Kansas City Center
Sat 03:55:54 PM 38.7672 -89.9072 209° Southwest 402 463 36,000  Level Kansas City Center
Sat 03:56:54 PM 38.6594 -89.9833 207° Southwest 402 463 36,000  Level Kansas City Center
Sat 03:57:54 PM 38.5578 -90.0506 206° Southwest 412 474 36,000  Level Kansas City Center
Sat 03:58:54 PM 38.4600 -90.1122 207° Southwest 405 466 36,000  Level Kansas City Center
Sat 03:59:54 PM 38.3642 -90.1733 208° Southwest 400 460 36,000  Level Kansas City Center
Sat 04:00:54 PM 38.2747 -90.2342 207° Southwest 400 460 36,000  Level Kansas City Center
Sat 04:01:54 PM 38.1686 -90.3036 208° Southwest 400 460 36,000  Level Kansas City Center
Sat 04:02:54 PM 38.0789 -90.3642 208° Southwest 400 460 36,000  Level Kansas City Center
Sat 04:03:54 PM 37.9750 -90.4331 208° Southwest 400 460 36,000  Level Kansas City Center
Sat 04:04:54 PM 37.8853 -90.4933 206° Southwest 400 460 36,000  Level Kansas City Center
Sat 04:05:54 PM 37.7850 -90.5539 208° Southwest 405 466 36,000  Level Kansas City Center
Sat 04:06:54 PM 37.6892 -90.6192 207° Southwest 400 460 36,000  Level Kansas City Center
Sat 04:07:54 PM 37.5892 -90.6847 207° Southwest 405 466 36,000  Level Kansas City Center
Sat 04:09:55 PM 37.3936 -90.8111 207° Southwest 381 438 36,000  Level Memphis Center
Sat 04:10:55 PM 37.2850 -90.8808 206° Southwest 389 448 36,000  Level Memphis Center
Sat 04:11:55 PM 37.1847 -90.9428 208° Southwest 389 448 36,000  Level Memphis Center
Sat 04:12:55 PM 37.0844 -91.0094 209° Southwest 400 460 36,000  Level Memphis Center
Sat 04:13:55 PM 36.9944 -91.0711 206° Southwest 409 471 36,000  Level Memphis Center
Sat 04:14:55 PM 36.8878 -91.1350 207° Southwest 409 471 36,000  Level Memphis Center
Sat 04:15:55 PM 36.7894 -91.1964 207° Southwest 409 471 36,000  Level Memphis Center
Sat 04:16:55 PM 36.6911 -91.2600 209° Southwest 404 465 36,000  Level Memphis Center
Sat 04:17:55 PM 36.5906 -91.3286 206° Southwest 404 465 36,000  Level Memphis Center
Sat 04:18:55 PM 36.4922 -91.3894 207° Southwest 409 471 36,000  Level Memphis Center
Sat 04:19:55 PM 36.4000 -91.4475 207° Southwest 415 478 36,000  Level Memphis Center
Sat 04:20:55 PM 36.2992 -91.5106 206° Southwest 410 472 36,000  Level Memphis Center
Sat 04:21:55 PM 36.1964 -91.5736 203° Southwest 410 472 36,000  Level Memphis Center
Sat 04:22:55 PM 36.0917 -91.6283 198° South 410 472 36,000  Level Memphis Center
Sat 04:23:55 PM 35.9869 -91.6706 198° South 410 472 36,000  Level Memphis Center
Sat 04:24:55 PM 35.8678 -91.7172 197° South 410 472 36,000  Level Memphis Center
Sat 04:25:55 PM 35.7589 -91.7589 198° South 410 472 36,000  Level Memphis Center
Sat 04:26:55 PM 35.6478 -91.8031 199° South 410 472 36,000  Level Memphis Center
Sat 04:27:55 PM 35.5408 -91.8472 197° South 410 472 36,000  Level Memphis Center
Sat 04:28:55 PM 35.4278 -91.8883 198° South 415 478 36,000  Level Memphis Center
Sat 04:29:55 PM 35.3186 -91.9322 198° South 415 478 36,000  Level Memphis Center
Sat 04:30:55 PM 35.2222 -91.9711 198° South 420 483 36,000  Level Memphis Center
Sat 04:31:55 PM 35.1092 -92.0147 197° South 420 483 36,000  Level Memphis Center
Sat 04:32:55 PM 35.0000 -92.0556 198° South 425 489 36,000  Level Memphis Center
Sat 04:33:55 PM 34.8908 -92.0989 197° South 420 483 36,000  Level Memphis Center
Sat 04:34:55 PM 34.7797 -92.1397 198° South 420 483 36,000  Level Memphis Center
Sat 04:35:55 PM 34.6706 -92.1828 189° South 420 483 36,000  Level Memphis Center
Sat 04:36:55 PM 34.5536 -92.2056 188° South 420 483 36,000  Level Memphis Center
Sat 04:37:55 PM 34.4383 -92.2258 189° South 420 483 36,000  Level Memphis Center
Sat 04:38:55 PM 34.3211 -92.2483 188° South 425 489 36,000  Level Memphis Center
Sat 04:39:55 PM 34.2083 -92.2686 190° South 425 489 36,000  Level Memphis Center
Sat 04:40:55 PM 34.0911 -92.2933 188° South 430 495 36,000  Level Memphis Center
Sat 04:42:36 PM 33.9053 -92.3261 188° South 401 461 36,000  Level Fort Worth Center
Sat 04:43:35 PM 33.7872 -92.3456 190° South 411 473 36,000  Level Fort Worth Center
Sat 04:44:35 PM 33.6714 -92.3694 188° South 424 488 36,000  Level Fort Worth Center
Sat 04:45:35 PM 33.5469 -92.3892 189° South 424 488 36,000  Level Fort Worth Center
Sat 04:46:35 PM 33.4289 -92.4108 189° South 424 488 36,000  Level Fort Worth Center
Sat 04:47:35 PM 33.3150 -92.4322 190° South 424 488 36,000  Level Fort Worth Center
Sat 04:48:36 PM 33.1969 -92.4561 188° South 424 488 36,000  Level Fort Worth Center
Sat 04:49:35 PM 33.0808 -92.4750 189° South 424 488 36,000  Level Fort Worth Center
Sat 04:50:35 PM 32.9606 -92.4967 190° South 424 488 36,000  Level Fort Worth Center
Sat 04:52:50 PM 32.7150 -92.5461 190° South 428 493 36,000  Level Houston Center
Sat 04:53:50 PM 32.5983 -92.5694 187° South 428 493 36,000  Level Houston Center
Sat 04:54:49 PM 32.4814 -92.5856 191° South 428 493 36,000  Level Houston Center
Sat 04:55:50 PM 32.3667 -92.6117 189° South 428 493 36,000  Level Houston Center
Sat 04:56:50 PM 32.2497 -92.6325 188° South 428 493 36,000  Level Houston Center
Sat 04:57:50 PM 32.1328 -92.6508 188° South 428 493 36,000  Level Houston Center
Sat 04:58:50 PM 32.0181 -92.6694 207° Southwest 428 493 36,000  Level Houston Center
Sat 04:59:50 PM 31.9153 -92.7319 221° Southwest 410 472 36,000  Level Houston Center
Sat 05:00:50 PM 31.8292 -92.8189 219° Southwest 410 472 36,000  Level Houston Center
Sat 05:01:50 PM 31.7386 -92.9056 220° Southwest 415 478 36,000  Level Houston Center
Sat 05:02:50 PM 31.6503 -92.9922 218° Southwest 415 478 36,000  Level Houston Center
Sat 05:03:50 PM 31.5617 -93.0739 221° Southwest 420 483 36,000  Level Houston Center
Sat 05:04:50 PM 31.4731 -93.1650 218° Southwest 420 483 36,000  Level Houston Center
Sat 05:05:50 PM 31.3847 -93.2464 219° Southwest 420 483 36,000  Level Houston Center
Sat 05:06:50 PM 31.2853 -93.3419 218° Southwest 426 490 36,000  Level Houston Center
Sat 05:07:50 PM 31.2031 -93.4183 220° Southwest 426 490 36,000 -150 Level Houston Center
Sat 05:08:50 PM 31.1036 -93.5158 219° Southwest 426 490 35,700 -1,100 Descending Houston Center
Sat 05:09:50 PM 31.0128 -93.6014 220° Southwest 426 490 33,800 -2,050 Descending Houston Center
Sat 05:10:50 PM 30.9217 -93.6892 218° Southwest 426 490 31,600 -2,250 Descending Houston Center
Sat 05:11:50 PM 30.8286 -93.7744 220° Southwest 426 490 29,300 -2,300 Descending Houston Center
Sat 05:12:50 PM 30.7375 -93.8619 218° Southwest 426 490 27,000 -2,450 Descending Houston Center
Sat 05:13:50 PM 30.6506 -93.9419 218° Southwest 420 483 24,400 -2,650 Descending Houston Center
Sat 05:14:50 PM 30.5636 -94.0222 220° Southwest 409 471 21,700 -2,700 Descending Houston Center
Sat 05:15:50 PM 30.4831 -94.0997 219° Southwest 398 458 19,000 -2,700 Descending Houston Center
Sat 05:16:50 PM 30.4067 -94.1725 218° Southwest 385 443 16,300 -2,700 Descending Houston Center
Sat 05:17:50 PM 30.3281 -94.2428 220° Southwest 373 429 13,600 -2,150 Descending Houston Center
Sat 05:18:50 PM 30.2556 -94.3131 224° Southwest 356 410 12,000 -800 Descending Houston Center
Sat 05:19:50 PM 30.1894 -94.3858 247° West 344 396 12,000 -600 Level Houston Center
Sat 05:20:50 PM 30.1542 -94.4808 247° West 329 379 10,800 -1,250 Descending Houston Center
Sat 05:21:50 PM 30.1253 -94.5594 247° West 316 364 9,500 -1,350 Descending Houston Center
Sat 05:22:50 PM 30.0944 -94.6425 246° West 300 345 8,100 -750 Descending Houston Center
Sat 05:23:50 PM 30.0633 -94.7233 253° West 289 333 8,000 -400 Descending Houston Center
Sat 05:24:50 PM 30.0406 -94.8114 254° West 289 333 7,300 -600 Descending Houston Center
Sat 05:25:50 PM 30.0219 -94.8850 253° West 276 318 6,800 -600 Descending Houston Center
Sat 05:26:50 PM 30.0036 -94.9539 258° West 249 287 6,100 -857 Descending Houston Center
Sat 05:27:21 PM 29.9942 -95.0042 268° West 225 259 5,500 -1,186 Descending Houston Center
Sat 05:28:16 PM 29.9925 -95.0711 268° West 231 266 4,400 -1,011 Descending Houston Center
Sat 05:28:50 PM 29.9917 -95.1022 270° West 237 273 4,000 -894 Descending Houston Center
Sat 05:29:50 PM 29.9919 -95.1717 271° West 232 267 3,000 -1,150 Descending Houston Center
Sat 05:30:50 PM 29.9925 -95.2342 268° West 217 250 1,700 -1,175 Descending Houston Center
Sat 05:31:27 PM 29.9914 -95.2772 268° West 162 186 1,100 -973 Descending Houston Center

Login

Don't have an account? Register now (free) for customized features, flight alerts, and more!